createdAt,value
2023-03-08T00:00:28.346Z,0.84
2023-03-08T00:01:28.104Z,0.76
2023-03-08T00:02:28.539Z,0.84
2023-03-08T00:03:28.540Z,0.82
2023-03-08T00:04:28.926Z,0.84
2023-03-08T00:05:28.582Z,0.76
2023-03-08T00:06:28.314Z,0.78
2023-03-08T00:07:28.188Z,0.76
2023-03-08T00:08:28.607Z,0.81
2023-03-08T00:09:28.416Z,0.74
2023-03-08T00:10:28.128Z,0.79
2023-03-08T00:11:28.110Z,0.79
2023-03-08T00:12:28.348Z,0.79
2023-03-08T00:13:27.811Z,0.81
2023-03-08T00:14:28.058Z,0.75
2023-03-08T00:15:28.314Z,0.78
2023-03-08T00:16:28.442Z,0.81
2023-03-08T00:17:28.241Z,0.76
2023-03-08T00:18:28.221Z,0.75
2023-03-08T00:19:28.207Z,0.69
2023-03-08T00:20:28.062Z,0.61
2023-03-08T00:21:28.277Z,0.67
2023-03-08T00:22:28.156Z,0.71
2023-03-08T00:23:28.148Z,0.63
2023-03-08T00:24:28.151Z,0.64
2023-03-08T00:25:27.848Z,0.44
2023-03-08T00:26:28.076Z,0.53
2023-03-08T00:27:28.053Z,0.52
2023-03-08T00:28:28.036Z,0.5
2023-03-08T00:29:27.931Z,0.52
2023-03-08T00:30:27.737Z,0.52
2023-03-08T00:31:27.976Z,0.48
2023-03-08T00:32:27.832Z,0.47
2023-03-08T00:33:27.967Z,0.41
2023-03-08T00:34:27.932Z,0.5
2023-03-08T00:35:27.760Z,0.39
2023-03-08T00:36:27.645Z,0.38
2023-03-08T00:37:28.067Z,0.38
2023-03-08T00:38:27.610Z,0.41
2023-03-08T00:39:27.824Z,0.39
2023-03-08T00:40:27.814Z,0.39
2023-03-08T00:41:27.791Z,0.42
2023-03-08T00:42:27.811Z,0.41
2023-03-08T00:43:27.756Z,0.5
2023-03-08T00:44:27.727Z,0.47
2023-03-08T00:45:27.467Z,0.39
2023-03-08T00:46:27.858Z,0.42
2023-03-08T00:47:27.693Z,0.37
2023-03-08T00:48:27.669Z,0.37
2023-03-08T00:49:27.365Z,0.42
2023-03-08T00:50:27.356Z,0.48
2023-03-08T00:51:27.330Z,0.42
2023-03-08T00:52:27.561Z,0.37
2023-03-08T00:53:27.660Z,0.44
2023-03-08T00:54:27.268Z,0.39
2023-03-08T00:55:27.251Z,0.39
2023-03-08T00:56:27.485Z,0.53
2023-03-08T00:57:27.467Z,0.52
2023-03-08T00:58:27.826Z,0.47
2023-03-08T00:59:28.306Z,0.52
2023-03-08T01:00:28.049Z,0.5
2023-03-08T01:01:28.271Z,0.47
2023-03-08T01:02:28.003Z,0.48
2023-03-08T01:03:27.743Z,0.48
2023-03-08T01:04:27.951Z,0.52
2023-03-08T01:05:28.181Z,0.52
2023-03-08T01:06:28.172Z,0.52
2023-03-08T01:07:27.882Z,0.47
2023-03-08T01:08:28.147Z,0.48
2023-03-08T01:09:28.178Z,0.5
2023-03-08T01:10:28.082Z,0.45
2023-03-08T01:11:28.084Z,0.47
2023-03-08T01:12:28.035Z,0.48
2023-03-08T01:13:28.033Z,0.52
2023-03-08T01:14:28.015Z,0.48
2023-03-08T01:15:27.977Z,0.56
2023-03-08T01:16:27.981Z,0.56
2023-03-08T01:17:27.685Z,0.52
2023-03-08T01:18:27.696Z,0.56
2023-03-08T01:19:27.907Z,0.58
2023-03-08T01:20:27.893Z,0.45
2023-03-08T01:21:27.371Z,0.52
2023-03-08T01:22:27.856Z,0.6
2023-03-08T01:23:27.572Z,0.5
2023-03-08T01:24:27.566Z,0.57
2023-03-08T01:25:27.861Z,0.56
2023-03-08T01:26:27.511Z,0.6
2023-03-08T01:27:27.236Z,0.52
2023-03-08T01:28:27.224Z,0.61
2023-03-08T01:29:27.719Z,0.58
2023-03-08T01:30:27.709Z,0.58
2023-03-08T01:31:27.678Z,0.52
2023-03-08T01:32:27.552Z,0.52
2023-03-08T01:34:27.607Z,0.67
2023-03-08T01:35:27.600Z,0.63
2023-03-08T01:36:27.648Z,0.63
2023-03-08T01:37:27.293Z,0.58
2023-03-08T01:38:27.028Z,0.44
2023-03-08T01:39:27.524Z,0.47
2023-03-08T01:40:27.529Z,0.53
2023-03-08T01:41:27.550Z,0.48
2023-03-08T02:41:05.315Z,0.21
2023-03-08T02:41:36.071Z,0.17
2023-03-08T02:42:35.999Z,0.16
2023-03-08T02:43:35.732Z,0.19
2023-03-08T02:44:35.955Z,0.27
2023-03-08T02:45:35.704Z,0.16
2023-03-08T02:46:35.671Z,0.16
2023-03-08T02:47:35.650Z,0.19
2023-03-08T02:48:35.864Z,0.2
2023-03-08T02:49:35.592Z,0.19
2023-03-08T02:50:35.615Z,0.2
2023-03-08T02:51:35.292Z,0.24
2023-03-08T02:52:35.782Z,0.17
2023-03-08T02:53:35.763Z,0.2
2023-03-08T02:54:35.491Z,0.21
2023-03-08T02:55:35.460Z,0.23
2023-03-08T02:56:35.724Z,0.19
2023-03-08T02:57:35.735Z,0.28
2023-03-08T02:58:35.648Z,0.26
2023-03-08T02:59:35.750Z,0.27
2023-03-08T03:00:35.614Z,0.28
2023-03-08T03:01:35.704Z,0.31
2023-03-08T03:02:35.570Z,0.26
2023-03-08T03:03:35.548Z,0.21
2023-03-08T03:04:35.296Z,0.23
2023-03-08T03:05:35.265Z,0.37
2023-03-08T03:06:35.618Z,0.31
2023-03-08T03:07:34.958Z,0.28
2023-03-08T03:08:35.478Z,0.31
2023-03-08T03:09:34.917Z,0.31
2023-03-08T03:10:35.158Z,0.28
2023-03-08T03:11:35.141Z,0.31
2023-03-08T03:12:35.450Z,0.31
2023-03-08T03:13:35.455Z,0.31
2023-03-08T03:14:35.332Z,0.34
2023-03-08T03:15:34.908Z,0.31
2023-03-08T03:16:35.030Z,0.35
2023-03-08T03:17:35.265Z,0.37
2023-03-08T03:18:34.996Z,0.42
2023-03-08T03:19:35.235Z,0.39
2023-03-08T03:20:34.970Z,0.41
2023-03-08T03:21:35.180Z,0.34
2023-03-08T03:22:34.912Z,0.42
2023-03-08T03:23:35.146Z,0.44
2023-03-08T03:24:37.456Z,0.47
2023-03-08T03:25:35.107Z,0.41
2023-03-08T03:26:34.842Z,0.41
2023-03-08T03:27:34.817Z,0.41
2023-03-08T03:28:35.085Z,0.44
2023-03-08T03:29:35.077Z,0.45
2023-03-08T03:30:35.008Z,0.53
2023-03-08T03:31:34.914Z,0.47
2023-03-08T03:32:35.256Z,0.48
2023-03-08T03:33:34.957Z,0.44
2023-03-08T03:34:34.664Z,0.52
2023-03-08T03:35:35.162Z,0.5
2023-03-08T03:36:34.882Z,0.5
2023-03-08T03:37:34.881Z,0.56
2023-03-08T03:38:34.578Z,0.5
2023-03-08T03:39:34.878Z,0.52
2023-03-08T03:40:34.560Z,0.5
2023-03-08T03:41:34.540Z,0.57
2023-03-08T03:42:34.771Z,0.56
2023-03-08T03:43:34.245Z,0.57
2023-03-08T03:44:34.845Z,0.56
2023-03-08T03:45:34.766Z,0.5
2023-03-08T03:46:34.661Z,0.53
2023-03-08T03:47:34.662Z,0.63
2023-03-08T03:48:34.648Z,0.57
2023-03-08T03:49:34.641Z,0.66
2023-03-08T03:50:34.387Z,0.64
2023-03-08T03:51:34.142Z,0.71
2023-03-08T03:52:34.585Z,0.64
2023-03-08T03:53:34.588Z,0.61
2023-03-08T03:54:34.555Z,0.6
2023-03-08T03:55:34.526Z,0.64
2023-03-08T03:56:34.502Z,0.69
2023-03-08T03:57:34.226Z,0.75
2023-03-08T03:58:34.469Z,0.61
2023-03-08T03:59:34.440Z,0.72
2023-03-08T04:00:34.459Z,0.79
2023-03-08T04:01:34.589Z,0.75
2023-03-08T04:02:34.407Z,0.74
2023-03-08T04:03:34.172Z,0.71
2023-03-08T04:04:33.839Z,0.79
2023-03-08T04:05:33.825Z,0.72
2023-03-08T04:06:34.307Z,0.71
2023-03-08T04:07:33.797Z,0.82
2023-03-08T04:08:34.005Z,0.74
2023-03-08T04:09:33.990Z,0.78
2023-03-08T04:10:34.217Z,0.89
2023-03-08T04:11:33.703Z,0.79
2023-03-08T04:12:34.189Z,0.86
2023-03-08T04:13:33.916Z,0.81
2023-03-08T04:14:34.141Z,0.78
2023-03-08T04:15:33.864Z,0.86
2023-03-08T04:16:34.652Z,0.81
2023-03-08T04:17:34.206Z,0.85
2023-03-08T04:18:34.238Z,0.75
2023-03-08T04:19:33.538Z,0.82
2023-03-08T04:20:34.050Z,0.86
2023-03-08T04:21:34.027Z,0.81
2023-03-08T04:22:33.989Z,0.85
2023-03-08T04:23:33.709Z,0.79
2023-03-08T04:24:34.089Z,0.82
2023-03-08T04:25:33.926Z,0.84
2023-03-08T04:26:33.444Z,0.85
2023-03-08T04:27:33.631Z,0.79
2023-03-08T04:28:33.650Z,0.86
2023-03-08T04:46:09.126Z,0.76
2023-03-08T04:47:08.824Z,0.78
2023-03-08T04:48:08.752Z,0.71
2023-03-08T04:49:08.998Z,0.75
2023-03-08T04:50:08.706Z,0.78
2023-03-08T04:51:08.941Z,0.82
2023-03-08T04:52:08.905Z,0.75
2023-03-08T04:53:08.898Z,0.66
2023-03-08T04:54:08.873Z,0.64
2023-03-08T04:55:08.608Z,0.67
2023-03-08T04:56:08.576Z,0.72
2023-03-08T04:57:08.812Z,0.71
2023-03-08T04:58:08.544Z,0.71
2023-03-08T04:59:08.516Z,0.74
2023-03-08T05:00:08.541Z,0.75
2023-03-08T05:01:08.733Z,0.82
2023-03-08T05:02:08.945Z,0.76
2023-03-08T05:03:08.438Z,0.78
2023-03-08T05:04:08.396Z,0.76
2023-03-08T05:05:08.363Z,0.79
2023-03-08T05:06:08.132Z,0.71
2023-03-08T05:07:08.621Z,0.79
2023-03-08T05:08:08.596Z,0.81
2023-03-08T05:09:08.566Z,0.81
2023-03-08T05:10:08.051Z,0.84
2023-03-08T05:11:08.277Z,0.85
2023-03-08T05:12:08.002Z,0.84
2023-03-08T05:13:08.485Z,0.84
2023-03-08T05:14:08.473Z,0.86
2023-03-08T05:15:08.200Z,0.78
2023-03-08T05:16:08.654Z,0.81
2023-03-08T05:17:08.405Z,0.81
2023-03-08T05:18:08.465Z,0.93
2023-03-08T05:19:07.907Z,0.93
2023-03-08T05:20:08.101Z,0.84
2023-03-08T05:21:09.108Z,0.85
2023-03-08T05:22:09.102Z,0.94
2023-03-08T05:23:09.083Z,0.97
2023-03-08T05:24:08.802Z,0.96
2023-03-08T05:25:09.024Z,0.94
2023-03-08T05:26:08.748Z,0.99
2023-03-08T05:27:08.989Z,0.93
2023-03-08T05:28:08.721Z,0.93
2023-03-08T05:29:08.440Z,0.97
2023-03-08T05:30:08.673Z,0.93
2023-03-08T05:31:08.913Z,0.99
2023-03-08T05:32:10.742Z,0.86
2023-03-08T05:33:08.601Z,0.99
2023-03-08T05:34:08.989Z,0.94
2023-03-08T05:35:08.822Z,0.99
2023-03-08T05:36:08.974Z,1.02
2023-03-08T05:37:08.290Z,1.03
2023-03-08T05:38:08.502Z,1
2023-03-08T05:39:08.232Z,1
2023-03-08T05:40:08.840Z,1.1
2023-03-08T05:41:08.459Z,1.08
2023-03-08T05:42:08.176Z,1.11
2023-03-08T05:43:08.681Z,1.11
2023-03-08T05:44:08.659Z,1.03
2023-03-08T05:45:08.563Z,1.1
2023-03-08T05:46:09.098Z,1.1
2023-03-08T05:47:08.596Z,1.15
2023-03-08T05:48:08.589Z,1.07
2023-03-08T05:49:08.558Z,1.11
2023-03-08T05:50:08.608Z,1.15
2023-03-08T05:51:08.249Z,1.11
2023-03-08T05:52:08.238Z,1.08
2023-03-08T05:53:08.474Z,1.11
2023-03-08T05:54:08.239Z,1.1
2023-03-08T05:55:08.180Z,1.15
2023-03-08T05:56:07.899Z,1.11
2023-03-08T05:57:08.415Z,1.11
2023-03-08T05:58:07.862Z,1.17
2023-03-08T05:59:08.382Z,1.08
2023-03-08T06:00:08.128Z,1.15
2023-03-08T06:01:08.073Z,1.2
2023-03-08T06:02:08.176Z,1.14
2023-03-08T06:03:08.407Z,1.18
2023-03-08T06:04:08.348Z,1.15
2023-03-08T06:05:07.983Z,1.21
2023-03-08T06:06:08.289Z,1.12
2023-03-08T06:07:08.214Z,1.17
2023-03-08T06:08:08.173Z,1.24
2023-03-08T06:09:08.182Z,1.3
2023-03-08T06:10:07.883Z,1.24
2023-03-08T06:11:07.874Z,1.21
2023-03-08T06:12:08.115Z,1.26
2023-03-08T06:13:07.586Z,1.28
2023-03-08T06:14:08.053Z,1.28
2023-03-08T06:15:07.811Z,1.3
2023-03-08T06:16:08.029Z,1.21
2023-03-08T06:17:07.803Z,1.2
2023-03-08T06:18:08.005Z,1.3
2023-03-08T06:19:07.734Z,1.32
2023-03-08T06:20:07.747Z,1.32
2023-03-08T06:21:07.932Z,1.32
2023-03-08T06:22:08.008Z,1.33
2023-03-08T06:23:07.890Z,1.3
2023-03-08T06:24:07.668Z,1.4
2023-03-08T06:25:07.857Z,1.29
2023-03-08T06:26:07.857Z,1.4
2023-03-08T06:27:07.553Z,1.42
2023-03-08T06:28:07.549Z,1.33
2023-03-08T06:29:07.776Z,1.39
2023-03-08T06:30:07.535Z,1.36
2023-03-08T06:31:08.018Z,1.53
2023-03-08T06:32:07.360Z,1.53
2023-03-08T06:33:07.705Z,1.58
2023-03-08T06:34:07.704Z,1.48
2023-03-08T06:35:08.333Z,1.6
2023-03-08T06:36:08.074Z,1.57
2023-03-08T06:37:08.282Z,1.64
2023-03-08T06:38:08.349Z,1.66
2023-03-08T06:39:07.992Z,1.66
2023-03-08T06:40:08.283Z,1.72
2023-03-08T06:41:08.198Z,1.76
2023-03-08T06:42:08.193Z,1.69
2023-03-08T06:43:08.166Z,1.76
2023-03-08T06:44:08.176Z,1.72
2023-03-08T06:45:08.135Z,1.72
2023-03-08T06:46:08.424Z,1.84
2023-03-08T06:47:07.846Z,1.78
2023-03-08T06:48:07.819Z,1.86
2023-03-08T06:49:08.063Z,1.97
2023-03-08T06:50:08.078Z,1.93
2023-03-08T06:51:08.023Z,2.09
2023-03-08T06:52:08.005Z,2.08
2023-03-08T06:53:07.988Z,2.15
2023-03-08T06:54:08.052Z,2.2
2023-03-08T06:55:07.470Z,2.29
2023-03-08T06:56:07.737Z,2.3
2023-03-08T06:57:10.490Z,2.33
2023-03-08T06:58:07.656Z,2.36
2023-03-08T06:59:07.864Z,2.45
2023-03-08T07:00:07.893Z,2.52
2023-03-08T07:01:08.064Z,2.49
2023-03-08T07:02:07.822Z,2.54
2023-03-08T07:03:07.567Z,2.51
2023-03-08T07:04:07.709Z,2.55
2023-03-08T07:05:07.274Z,2.52
2023-03-08T07:06:07.749Z,2.55
2023-03-08T07:07:07.645Z,2.55
2023-03-08T07:08:07.451Z,2.6
2023-03-08T07:09:07.438Z,2.55
2023-03-08T07:10:07.773Z,2.7
2023-03-08T07:11:07.406Z,2.77
2023-03-08T07:12:08.807Z,2.69
2023-03-08T07:13:07.369Z,2.72
2023-03-08T07:14:07.342Z,2.78
2023-03-08T07:15:07.566Z,2.72
2023-03-08T07:16:07.272Z,2.72
2023-03-08T07:17:07.294Z,2.7
2023-03-08T07:18:07.264Z,2.77
2023-03-08T07:19:07.499Z,2.88
2023-03-08T07:20:07.241Z,2.84
2023-03-08T07:21:07.455Z,2.83
2023-03-08T07:22:07.465Z,2.8
2023-03-08T07:23:07.185Z,2.77
2023-03-08T07:24:07.168Z,2.76
2023-03-08T07:25:07.156Z,2.77
2023-03-08T07:26:07.531Z,2.78
2023-03-08T07:27:07.126Z,2.76
2023-03-08T07:28:07.355Z,2.76
2023-03-08T07:29:07.074Z,2.7
2023-03-08T07:30:06.784Z,2.66
2023-03-08T07:31:07.027Z,2.76
2023-03-08T07:32:07.419Z,2.67
2023-03-08T07:33:07.186Z,2.77
2023-03-08T07:34:06.958Z,2.81
2023-03-08T07:35:06.960Z,2.85
2023-03-08T07:36:07.524Z,2.95
2023-03-08T07:37:06.902Z,2.88
2023-03-08T07:38:06.912Z,2.84
2023-03-08T07:39:06.874Z,2.99
2023-03-08T07:40:07.111Z,3.01
2023-03-08T07:41:07.073Z,2.93
2023-03-08T07:42:07.507Z,3.08
2023-03-08T07:43:07.304Z,3.16
2023-03-08T07:44:07.206Z,3.17
2023-03-08T07:45:07.394Z,3.2
2023-03-08T07:46:07.297Z,3.16
2023-03-08T07:47:07.230Z,3.2
2023-03-08T07:48:07.212Z,3.21
2023-03-08T07:49:07.206Z,3.17
2023-03-08T07:50:07.188Z,3.24
2023-03-08T07:51:07.172Z,3.2
2023-03-08T07:52:07.128Z,3.21
2023-03-08T07:53:06.924Z,3.27
2023-03-08T07:54:06.861Z,3.23
2023-03-08T07:55:07.173Z,3.21
2023-03-08T07:56:06.568Z,3.35
2023-03-08T07:57:06.841Z,3.16
2023-03-08T07:58:07.140Z,3.21
2023-03-08T07:59:07.011Z,3.3
2023-03-08T08:00:07.013Z,3.23
2023-03-08T08:01:07.043Z,3.17
2023-03-08T08:02:07.280Z,3.2
2023-03-08T08:03:07.183Z,3.16
2023-03-08T08:04:07.627Z,3.16
2023-03-08T08:05:07.126Z,3.16
2023-03-08T08:06:07.236Z,3.08
2023-03-08T08:07:09.312Z,3.09
2023-03-08T08:08:07.195Z,3.08
2023-03-08T08:09:06.894Z,3.16
2023-03-08T08:10:06.629Z,3.13
2023-03-08T08:11:07.130Z,3.19
2023-03-08T08:12:07.103Z,3.21
2023-03-08T08:13:07.092Z,3.21
2023-03-08T08:14:07.199Z,3.29
2023-03-08T08:15:06.542Z,3.43
2023-03-08T08:16:06.969Z,3.49
2023-03-08T08:17:06.792Z,3.51
2023-03-08T08:18:06.756Z,3.43
2023-03-08T08:19:06.730Z,3.57
2023-03-08T08:20:06.955Z,3.54
2023-03-08T08:21:06.697Z,3.66
2023-03-08T08:22:06.684Z,3.66
2023-03-08T08:23:06.665Z,3.84
2023-03-08T08:24:06.636Z,3.81
2023-03-08T08:25:06.874Z,3.82
2023-03-08T08:26:06.853Z,3.93
2023-03-08T08:27:06.866Z,3.94
2023-03-08T08:28:06.818Z,3.97
2023-03-08T08:29:06.819Z,3.89
2023-03-08T08:30:06.871Z,4.12
2023-03-08T08:31:06.924Z,4.11
2023-03-08T08:32:06.565Z,4.11
2023-03-08T08:33:06.304Z,4.2
2023-03-08T08:34:06.484Z,4.15
2023-03-08T08:35:06.710Z,4.14
2023-03-08T08:36:06.922Z,4.11
2023-03-08T08:37:06.657Z,4.15
2023-03-08T08:38:06.638Z,4.11
2023-03-08T08:39:06.712Z,3.92
2023-03-08T08:40:06.622Z,3.84
2023-03-08T08:41:06.093Z,3.76
2023-03-08T08:42:06.317Z,3.72
2023-03-08T08:43:06.556Z,3.69
2023-03-08T08:44:06.597Z,3.58
2023-03-08T08:45:06.530Z,3.64
2023-03-08T08:46:06.843Z,3.58
2023-03-08T08:47:06.478Z,3.61
2023-03-08T08:48:06.473Z,3.71
2023-03-08T08:49:06.471Z,3.53
2023-03-08T08:50:06.436Z,3.56
2023-03-08T08:51:06.159Z,3.53
2023-03-08T08:52:06.132Z,3.53
2023-03-08T08:53:06.764Z,3.56
2023-03-08T08:54:06.556Z,3.45
2023-03-08T08:55:06.089Z,3.42
2023-03-08T08:56:12.010Z,3.42
2023-03-08T08:57:06.306Z,3.26
2023-03-08T08:58:06.042Z,3.3
2023-03-08T08:59:06.280Z,3.32
2023-03-08T09:00:06.254Z,3.24
2023-03-08T09:01:06.949Z,3.19
2023-03-08T09:02:06.700Z,3.23
2023-03-08T09:03:06.200Z,3.27
2023-03-08T09:04:06.390Z,3.16
2023-03-08T09:05:06.442Z,3.21
2023-03-08T09:06:06.204Z,3.11
2023-03-08T09:07:05.628Z,3.17
2023-03-08T09:08:06.017Z,3.16
2023-03-08T09:09:06.117Z,3.21
2023-03-08T09:10:05.583Z,3.2
2023-03-08T09:11:05.821Z,3.13
2023-03-08T09:12:05.784Z,3.17
2023-03-08T09:13:05.956Z,3.2
2023-03-08T09:14:05.506Z,3.17
2023-03-08T09:15:05.762Z,3.23
2023-03-08T09:16:05.564Z,3.2
2023-03-08T09:17:06.037Z,3.23
2023-03-08T09:18:06.125Z,3.39
2023-03-08T09:19:05.970Z,3.35
2023-03-08T09:20:05.936Z,3.4
2023-03-08T09:21:05.637Z,3.42
2023-03-08T09:22:05.607Z,3.37
2023-03-08T09:23:05.772Z,3.39
2023-03-08T09:24:05.584Z,3.32
2023-03-08T09:25:05.831Z,3.35
2023-03-08T09:26:07.149Z,3.2
2023-03-08T09:27:05.524Z,3.21
2023-03-08T09:28:05.775Z,3.21
2023-03-08T09:29:05.724Z,3.24
2023-03-08T09:30:05.494Z,3.08
2023-03-08T09:31:05.451Z,3.14
2023-03-08T09:32:05.861Z,3.23
2023-03-08T09:33:05.423Z,3.16
2023-03-08T09:34:05.782Z,3.09
2023-03-08T09:35:05.651Z,3.08
2023-03-08T09:36:05.682Z,3.06
2023-03-08T09:37:05.608Z,3.19
2023-03-08T09:38:05.362Z,3.13
2023-03-08T09:39:05.565Z,3.14
2023-03-08T09:40:05.574Z,3.27
2023-03-08T09:41:05.130Z,3.2
2023-03-08T09:42:05.277Z,3.23
2023-03-08T09:43:05.522Z,3.21
2023-03-08T09:44:05.222Z,3.24
2023-03-08T09:45:07.359Z,3.21
2023-03-08T09:46:05.558Z,3.21
2023-03-08T09:47:05.441Z,3.2
2023-03-08T09:48:05.512Z,3.35
2023-03-08T09:49:05.146Z,3.42
2023-03-08T09:50:05.572Z,3.51
2023-03-08T09:51:05.113Z,3.49
2023-03-08T09:52:05.347Z,3.48
2023-03-08T09:53:05.076Z,3.49
2023-03-08T09:54:05.311Z,3.49
2023-03-08T09:55:05.526Z,3.53
2023-03-08T09:56:05.326Z,3.56
2023-03-08T09:57:05.505Z,3.53
2023-03-08T09:58:05.236Z,3.51
2023-03-08T09:59:05.222Z,3.51
2023-03-08T10:00:04.942Z,3.49
2023-03-08T10:01:05.436Z,3.54
2023-03-08T10:02:04.642Z,3.48
2023-03-08T10:03:05.082Z,3.53
2023-03-08T10:04:05.393Z,3.51
2023-03-08T10:05:17.624Z,3.56
2023-03-08T10:06:05.112Z,3.58
2023-03-08T10:07:05.077Z,3.58
2023-03-08T10:08:05.080Z,3.51
2023-03-08T10:09:05.035Z,3.48
2023-03-08T10:10:05.021Z,3.61
2023-03-08T10:11:04.821Z,3.56
2023-03-08T10:12:05.685Z,3.63
2023-03-08T10:13:04.493Z,3.66
2023-03-08T10:14:04.943Z,3.64
2023-03-08T10:15:04.688Z,3.67
2023-03-08T10:16:04.423Z,3.78
2023-03-08T10:17:05.318Z,3.72
2023-03-08T10:18:04.908Z,3.76
2023-03-08T10:19:04.646Z,3.74
2023-03-08T10:20:04.443Z,3.67
2023-03-08T10:21:04.886Z,3.69
2023-03-08T10:22:04.616Z,3.63
2023-03-08T10:23:04.563Z,3.74
2023-03-08T10:24:04.903Z,3.71
2023-03-08T10:25:04.503Z,3.69
2023-03-08T10:26:04.735Z,3.66
2023-03-08T10:27:07.175Z,3.76
2023-03-08T10:28:04.719Z,3.76
2023-03-08T10:29:04.184Z,3.79
2023-03-08T10:30:04.419Z,3.92
2023-03-08T10:31:04.707Z,3.84
2023-03-08T10:32:04.642Z,3.86
2023-03-08T10:33:04.114Z,3.96
2023-03-08T10:34:04.357Z,3.89
2023-03-08T10:35:04.588Z,3.97
2023-03-08T10:36:04.941Z,3.81
2023-03-08T10:37:04.621Z,3.71
2023-03-08T10:38:04.309Z,3.72
2023-03-08T10:39:07.356Z,3.74
2023-03-08T10:40:04.575Z,3.66
2023-03-08T10:41:04.228Z,3.67
2023-03-08T10:42:04.536Z,3.69
2023-03-08T10:43:04.240Z,3.66
2023-03-08T10:44:04.203Z,3.79
2023-03-08T10:45:04.416Z,3.82
2023-03-08T10:46:04.356Z,3.79
2023-03-08T10:47:04.390Z,3.81
2023-03-08T10:48:04.395Z,3.81
2023-03-08T10:49:04.345Z,3.86
2023-03-08T10:50:04.323Z,3.79
2023-03-08T10:51:04.349Z,3.85
2023-03-08T10:52:04.305Z,3.89
2023-03-08T10:53:04.341Z,3.93
2023-03-08T10:54:04.292Z,4.04
2023-03-08T10:55:04.063Z,3.94
2023-03-08T10:56:04.422Z,3.97
2023-03-08T10:57:04.223Z,3.93
2023-03-08T10:58:04.233Z,3.86
2023-03-08T10:59:03.905Z,3.94
2023-03-08T11:00:03.907Z,3.85
2023-03-08T11:01:04.139Z,3.82
2023-03-08T11:02:03.857Z,3.94
2023-03-08T11:03:04.113Z,3.84
2023-03-08T11:04:04.119Z,3.97
2023-03-08T11:05:04.407Z,3.94
2023-03-08T11:06:04.041Z,4.04
2023-03-08T11:07:03.766Z,3.93
2023-03-08T11:08:04.055Z,4
2023-03-08T11:09:03.919Z,3.96
2023-03-08T11:10:03.746Z,4.03
2023-03-08T11:11:03.620Z,4.03
2023-03-08T11:12:03.611Z,4.07
2023-03-08T11:13:03.931Z,4.14
2023-03-08T11:14:03.897Z,4.1
2023-03-08T11:15:03.978Z,4.2
2023-03-08T11:16:03.810Z,4.2
2023-03-08T11:17:03.618Z,4.22
2023-03-08T11:18:03.581Z,4.26
2023-03-08T11:19:04.023Z,4.21
2023-03-08T11:20:03.578Z,4.29
2023-03-08T11:21:03.555Z,4.38
2023-03-08T11:22:03.931Z,4.35
2023-03-08T11:23:03.507Z,4.57
2023-03-08T11:24:03.641Z,4.51
2023-03-08T11:25:03.783Z,4.53
2023-03-08T11:26:03.729Z,4.48
2023-03-08T11:27:03.680Z,4.4
2023-03-08T11:28:03.685Z,4.51
2023-03-08T11:29:04.009Z,4.57
2023-03-08T11:30:03.380Z,4.6
2023-03-08T11:31:03.516Z,4.61
2023-03-08T11:32:03.597Z,4.65
2023-03-08T11:33:04.214Z,4.66
2023-03-08T11:34:03.535Z,4.71
2023-03-08T11:35:03.571Z,4.65
2023-03-08T11:36:03.518Z,4.68
2023-03-08T11:37:03.261Z,4.75
2023-03-08T11:38:03.528Z,4.64
2023-03-08T11:39:03.474Z,4.58
2023-03-08T11:40:02.952Z,4.54
2023-03-08T11:41:03.523Z,4.57
2023-03-08T11:42:03.205Z,4.54
2023-03-08T11:43:03.171Z,4.5
2023-03-08T11:44:03.230Z,4.51
2023-03-08T11:45:03.382Z,4.48
2023-03-08T11:46:03.366Z,4.46
2023-03-08T11:47:03.297Z,4.33
2023-03-08T11:48:03.117Z,4.32
2023-03-08T11:49:03.554Z,4.24
2023-03-08T11:50:03.204Z,4.32
2023-03-08T11:51:03.035Z,4.35
2023-03-08T11:52:03.304Z,4.32
2023-03-08T11:53:03.336Z,4.46
2023-03-08T11:54:03.256Z,4.48
2023-03-08T11:55:03.083Z,4.48
2023-03-08T11:56:03.199Z,4.53
2023-03-08T11:57:03.345Z,4.5
2023-03-08T11:58:02.982Z,4.53
2023-03-08T11:59:03.147Z,4.5
2023-03-08T12:00:02.895Z,4.53
2023-03-08T12:01:02.870Z,4.53
2023-03-08T12:02:02.845Z,4.46
2023-03-08T12:03:02.813Z,4.53
2023-03-08T12:04:06.008Z,4.65
2023-03-08T12:05:03.363Z,4.66
2023-03-08T12:06:03.302Z,4.91
2023-03-08T12:07:03.103Z,4.97
2023-03-08T12:08:02.869Z,5.08
2023-03-08T12:09:03.287Z,5.2
2023-03-08T12:10:02.880Z,5.28
2023-03-08T12:11:02.931Z,5.09
2023-03-08T12:12:05.773Z,5.15
2023-03-08T12:13:03.035Z,5.28
2023-03-08T12:14:02.963Z,5.44
2023-03-08T12:15:03.068Z,5.6
2023-03-08T12:16:02.820Z,5.7
2023-03-08T12:17:03.422Z,5.82
2023-03-08T12:18:02.578Z,5.84
2023-03-08T12:19:02.587Z,5.78
2023-03-08T12:20:02.864Z,5.69
2023-03-08T12:21:02.517Z,5.7
2023-03-08T12:22:02.508Z,5.64
2023-03-08T12:23:02.489Z,5.54
2023-03-08T12:24:06.150Z,5.44
2023-03-08T12:25:02.504Z,5.23
2023-03-08T12:26:02.698Z,5.18
2023-03-08T12:27:02.817Z,5.23
2023-03-08T12:28:02.328Z,5.08
2023-03-08T12:29:02.444Z,4.95
2023-03-08T12:30:02.470Z,4.71
2023-03-08T12:31:02.686Z,4.65
2023-03-08T12:32:02.813Z,4.54
2023-03-08T12:33:03.095Z,4.56
2023-03-08T12:34:02.351Z,4.53
2023-03-08T12:35:02.301Z,4.5
2023-03-08T12:36:02.994Z,4.44
2023-03-08T12:37:02.423Z,4.42
2023-03-08T12:38:02.653Z,4.47
2023-03-08T12:39:02.643Z,4.56
2023-03-08T12:40:02.210Z,4.5
2023-03-08T12:41:02.499Z,4.57
2023-03-08T12:42:02.463Z,4.53
2023-03-08T12:43:02.174Z,4.46
2023-03-08T12:44:02.166Z,4.42
2023-03-08T12:45:02.193Z,4.42
2023-03-08T12:46:02.735Z,4.48
2023-03-08T12:47:07.968Z,4.38
2023-03-08T12:48:02.552Z,4.24
2023-03-08T12:49:02.564Z,4.22
2023-03-08T12:50:02.249Z,4.26
2023-03-08T12:51:05.041Z,4.28
2023-03-08T12:52:02.344Z,4.3
2023-03-08T12:53:02.316Z,4.36
2023-03-08T12:54:02.246Z,4.39
2023-03-08T12:55:02.254Z,4.42
2023-03-08T12:56:01.960Z,4.47
2023-03-08T12:57:02.268Z,4.6
2023-03-08T12:58:01.940Z,4.48
2023-03-08T12:59:02.164Z,4.36
2023-03-08T13:00:01.913Z,4.46
2023-03-08T13:01:02.340Z,4.39
2023-03-08T13:02:02.134Z,4.47
2023-03-08T13:03:02.344Z,4.53
2023-03-08T13:04:02.202Z,4.5
2023-03-08T13:05:01.948Z,4.46
2023-03-08T13:06:02.052Z,4.4
2023-03-08T13:07:01.776Z,4.44
2023-03-08T13:08:01.766Z,4.46
2023-03-08T13:09:02.013Z,4.46
2023-03-08T13:10:02.029Z,4.42
2023-03-08T13:11:01.738Z,4.33
2023-03-08T13:12:01.968Z,4.3
2023-03-08T13:13:01.817Z,4.36
2023-03-08T13:14:01.936Z,4.44
2023-03-08T13:15:01.952Z,4.32
2023-03-08T13:16:01.867Z,4.33
2023-03-08T13:17:02.353Z,4.33
2023-03-08T13:18:01.883Z,4.38
2023-03-08T13:19:01.943Z,4.33
2023-03-08T13:20:01.696Z,4.32
2023-03-08T13:21:01.790Z,4.18
2023-03-08T13:22:01.521Z,4.35
2023-03-08T13:23:01.501Z,4.33
2023-03-08T13:24:01.476Z,4.36
2023-03-08T13:25:01.942Z,4.33
2023-03-08T13:26:01.865Z,4.3
2023-03-08T13:27:01.575Z,4.3
2023-03-08T13:28:01.439Z,4.3
2023-03-08T13:29:01.847Z,4.29
2023-03-08T13:30:01.286Z,4.39
2023-03-08T13:31:01.540Z,4.33
2023-03-08T13:32:01.405Z,4.44
2023-03-08T13:33:01.737Z,4.54
2023-03-08T13:34:01.627Z,4.53
2023-03-08T13:35:01.309Z,4.44
2023-03-08T13:36:01.759Z,4.54
2023-03-08T13:37:01.529Z,4.44
2023-03-08T13:38:01.312Z,4.51
2023-03-08T13:39:00.977Z,4.6
2023-03-08T13:40:01.222Z,4.46
2023-03-08T13:41:01.510Z,4.53
2023-03-08T13:42:01.456Z,4.54
2023-03-08T13:43:01.183Z,4.36
2023-03-08T13:44:01.404Z,4.29
2023-03-08T13:45:00.887Z,4.32
2023-03-08T13:46:01.249Z,4.35
2023-03-08T13:47:01.457Z,4.36
2023-03-08T13:48:01.083Z,4.35
2023-03-08T13:49:01.426Z,4.32
2023-03-08T13:50:01.378Z,4.32
2023-03-08T13:51:01.284Z,4.3
2023-03-08T13:52:01.019Z,4.44
2023-03-08T13:53:01.253Z,4.47
2023-03-08T13:54:01.267Z,4.47
2023-03-08T13:55:01.298Z,4.35
2023-03-08T13:56:01.203Z,4.42
2023-03-08T13:57:01.236Z,4.47
2023-03-08T13:58:00.998Z,4.47
2023-03-08T13:59:01.013Z,4.48
2023-03-08T14:00:01.394Z,4.48
2023-03-08T14:01:04.341Z,4.48
2023-03-08T14:02:01.092Z,4.36
2023-03-08T14:03:01.081Z,4.14
2023-03-08T14:04:00.891Z,4.14
2023-03-08T14:05:01.356Z,4.1
2023-03-08T14:06:01.184Z,3.96
2023-03-08T14:07:00.784Z,3.96
2023-03-08T14:08:00.758Z,3.82
2023-03-08T14:09:00.752Z,3.85
2023-03-08T14:10:01.018Z,3.84
2023-03-08T14:11:01.291Z,3.81
2023-03-08T14:12:01.133Z,4
2023-03-08T14:13:00.942Z,4.12
2023-03-08T14:14:00.673Z,4.22
2023-03-08T14:15:01.057Z,4.26
2023-03-08T14:16:00.994Z,4.2
2023-03-08T14:17:00.793Z,4.14
2023-03-08T14:18:00.855Z,4.15
2023-03-08T14:19:01.041Z,4.11
2023-03-08T14:20:01.180Z,4.07
2023-03-08T14:21:01.071Z,4.12
2023-03-08T14:22:00.766Z,4.14
2023-03-08T14:23:00.966Z,4.24
2023-03-08T14:24:00.792Z,4.32
2023-03-08T14:25:00.923Z,4.39
2023-03-08T14:26:00.698Z,4.36
2023-03-08T14:27:00.906Z,4.4
2023-03-08T14:28:00.411Z,4.53
2023-03-08T14:29:00.708Z,4.51
2023-03-08T14:30:00.808Z,4.6
2023-03-08T14:31:01.026Z,4.68
2023-03-08T14:32:01.165Z,4.71
2023-03-08T14:33:00.615Z,4.78
2023-03-08T14:34:00.331Z,4.9
2023-03-08T14:35:00.300Z,4.87
2023-03-08T14:36:00.766Z,5
2023-03-08T14:37:00.661Z,5.05